Scitico, Connecticut
Current Conditions -  °F | °C
As of 4:18 AM on Thursday 27 Nov 2014 (Local Time) from KBDL Reporting Station
Overcast Overcast  
Wind Chill: 30°   Ceiling: 14000
Heat Index: 34°   Visibility: 10mi
Dew Point: 30°   Wind: 5mph
Humidity: 85%   Direction: 310°NW
Pressure: 29.84"   Gusts: NA
Location:  41.9843°N, 72.5534°W
Report Text: KBDL 270918Z 31004KT 10SM SCT026 OVC140 01/M01 A2984 RMK AO2 T00111011 $
Loading
Personal Weather Stations






























Interactive Weather Map New forecast layout! Learn more

10-Day Weather Forecast

Advertisements
Track Severe Weather on mobile